createdAt,value
2017-05-26T00:01:08.955Z,15.6
2017-05-26T00:02:19.973Z,15.65
2017-05-26T00:03:31.031Z,15.47
2017-05-26T00:04:42.244Z,15.51
2017-05-26T00:05:53.462Z,15.41
2017-05-26T00:07:04.473Z,15.52
2017-05-26T00:08:15.544Z,15.52
2017-05-26T00:09:26.623Z,15.44
2017-05-26T00:10:37.632Z,15.37
2017-05-26T00:11:48.846Z,15.31
2017-05-26T00:12:59.859Z,15.31
2017-05-26T00:14:10.871Z,15.37
2017-05-26T00:15:21.942Z,15.37
2017-05-26T00:16:32.962Z,15.3
2017-05-26T00:17:43.979Z,15.3
2017-05-26T00:18:55.011Z,15.35
2017-05-26T00:20:06.024Z,15.31
2017-05-26T00:21:17.285Z,15.35
2017-05-26T00:22:28.289Z,15.31
2017-05-26T00:23:39.300Z,15.33
2017-05-26T00:24:50.318Z,15.23
2017-05-26T00:26:01.359Z,15.13
2017-05-26T00:27:12.414Z,15.33
2017-05-26T00:28:23.628Z,15.19
2017-05-26T00:29:34.641Z,15.16
2017-05-26T00:30:45.659Z,15.16
2017-05-26T00:31:56.865Z,15.12
2017-05-26T00:33:07.943Z,15.12
2017-05-26T00:34:19.160Z,15
2017-05-26T00:35:30.176Z,14.97
2017-05-26T00:36:41.193Z,14.97
2017-05-26T00:37:52.402Z,14.93
2017-05-26T00:39:03.446Z,14.95
2017-05-26T00:40:14.673Z,14.95
2017-05-26T00:41:25.689Z,14.94
2017-05-26T00:42:36.707Z,14.98
2017-05-26T00:43:47.725Z,14.94
2017-05-26T00:44:58.796Z,14.95
2017-05-26T00:46:09.808Z,14.97
2017-05-26T00:47:20.816Z,14.97
2017-05-26T00:48:31.839Z,14.87
2017-05-26T00:49:42.846Z,14.86
2017-05-26T00:50:53.863Z,14.85
2017-05-26T00:52:05.075Z,14.83
2017-05-26T00:53:16.092Z,14.82
2017-05-26T00:54:27.100Z,14.71
2017-05-26T00:55:38.369Z,14.6
2017-05-26T00:56:49.378Z,14.67
2017-05-26T00:58:00.393Z,14.66
2017-05-26T00:59:11.402Z,14.69
2017-05-26T01:00:22.445Z,14.6
2017-05-26T01:01:33.508Z,14.59
2017-05-26T01:02:44.525Z,14.57
2017-05-26T01:03:55.538Z,14.63
2017-05-26T01:05:06.762Z,14.52
2017-05-26T01:06:17.783Z,14.52
2017-05-26T01:07:28.838Z,14.52
2017-05-26T01:08:39.856Z,14.64
2017-05-26T01:09:50.870Z,14.6
2017-05-26T01:11:01.888Z,14.6
2017-05-26T01:12:13.112Z,14.57
2017-05-26T01:13:24.169Z,14.57
2017-05-26T01:14:35.192Z,14.56
2017-05-26T01:15:46.212Z,14.52
2017-05-26T01:16:57.215Z,14.52
2017-05-26T01:18:08.229Z,14.46
2017-05-26T01:19:19.300Z,14.41
2017-05-26T01:20:30.318Z,14.34
2017-05-26T01:21:41.315Z,14.26
2017-05-26T01:22:52.519Z,14.3
2017-05-26T01:24:03.541Z,14.23
2017-05-26T01:25:14.592Z,14.28
2017-05-26T01:26:25.600Z,14.24
2017-05-26T01:27:36.599Z,14.2
2017-05-26T01:28:47.611Z,14.26
2017-05-26T01:29:58.631Z,14.24
2017-05-26T01:31:09.692Z,14.24
2017-05-26T01:32:20.705Z,14.23
2017-05-26T01:33:31.722Z,14.27
2017-05-26T01:34:42.933Z,14.2
2017-05-26T01:35:53.950Z,14.15
2017-05-26T01:37:05.020Z,14.15
2017-05-26T01:38:16.021Z,14.12
2017-05-26T01:39:27.034Z,14.19
2017-05-26T01:40:38.043Z,14.09
2017-05-26T01:41:49.052Z,14.06
2017-05-26T01:43:00.114Z,14.03
2017-05-26T01:44:11.123Z,14.09
2017-05-26T01:45:22.126Z,13.97
2017-05-26T01:46:33.140Z,14.05
2017-05-26T01:47:44.148Z,14.05
2017-05-26T01:48:55.206Z,13.93
2017-05-26T01:50:06.217Z,14.01
2017-05-26T01:51:17.236Z,13.99
2017-05-26T01:52:28.238Z,14.01
2017-05-26T01:53:39.450Z,13.88
2017-05-26T01:54:50.509Z,14.01
2017-05-26T01:56:01.527Z,14.02
2017-05-26T01:57:12.536Z,13.99
2017-05-26T01:58:23.811Z,13.79
2017-05-26T01:59:35.031Z,13.79
2017-05-26T02:00:46.064Z,13.69
2017-05-26T02:01:57.076Z,13.83
2017-05-26T02:03:08.091Z,13.81
2017-05-26T02:04:19.115Z,13.76
2017-05-26T02:05:30.178Z,13.72
2017-05-26T02:06:41.402Z,13.66
2017-05-26T02:07:52.406Z,13.72
2017-05-26T02:09:03.412Z,13.54
2017-05-26T02:10:14.414Z,13.45
2017-05-26T02:11:25.474Z,13.48
2017-05-26T02:12:36.489Z,13.45
2017-05-26T02:13:47.518Z,13.45
2017-05-26T02:14:58.736Z,13.42
2017-05-26T02:16:09.750Z,13.54
2017-05-26T02:17:21.208Z,13.44
2017-05-26T02:18:32.234Z,13.4
2017-05-26T02:19:43.258Z,13.28
2017-05-26T02:20:54.278Z,13.42
2017-05-26T02:22:05.494Z,13.31
2017-05-26T02:23:16.552Z,13.45
2017-05-26T02:24:27.762Z,13.35
2017-05-26T02:25:38.776Z,13.47
2017-05-26T02:26:49.788Z,13.37
2017-05-26T02:28:00.798Z,13.39
2017-05-26T02:29:11.857Z,13.37
2017-05-26T02:30:23.078Z,13.39
2017-05-26T02:31:34.093Z,13.37
2017-05-26T02:32:45.121Z,13.44
2017-05-26T02:33:56.134Z,13.36
2017-05-26T02:35:07.193Z,13.27
2017-05-26T02:36:18.203Z,13.32
2017-05-26T02:37:29.222Z,13.42
2017-05-26T02:38:40.244Z,13.32
2017-05-26T02:39:51.455Z,13.29
2017-05-26T02:41:02.670Z,13.32
2017-05-26T02:42:13.678Z,13.24
2017-05-26T02:43:24.693Z,13.31
2017-05-26T02:44:35.708Z,13.25
2017-05-26T02:45:46.769Z,13.32
2017-05-26T02:46:57.779Z,13.16
2017-05-26T02:48:08.795Z,13.17
2017-05-26T02:49:20.001Z,13.13
2017-05-26T02:50:31.015Z,13.13
2017-05-26T02:51:42.074Z,13.13
2017-05-26T02:52:53.365Z,13.17
2017-05-26T02:54:04.590Z,13.16
2017-05-26T02:55:16.002Z,13.16
2017-05-26T02:56:27.015Z,13.24
2017-05-26T02:57:38.131Z,13.2
2017-05-26T02:58:49.158Z,13.32
2017-05-26T03:00:00.167Z,13.2
2017-05-26T03:01:11.173Z,13.2
2017-05-26T03:02:22.413Z,13.14
2017-05-26T03:03:33.489Z,13.14
2017-05-26T03:04:44.501Z,13.17
2017-05-26T03:05:55.503Z,13.14
2017-05-26T03:07:06.508Z,13.16
2017-05-26T03:08:17.514Z,13.14
2017-05-26T03:09:28.577Z,13.19
2017-05-26T03:10:39.781Z,13.16
2017-05-26T03:11:50.785Z,13.16
2017-05-26T03:13:01.822Z,13.11
2017-05-26T03:14:12.829Z,13.1
2017-05-26T03:15:23.931Z,13.09
2017-05-26T03:16:35.149Z,13.02
2017-05-26T03:17:46.159Z,13.06
2017-05-26T03:18:57.180Z,13.1
2017-05-26T03:20:08.193Z,13.09
2017-05-26T03:21:19.257Z,13.03
2017-05-26T03:22:30.254Z,13.02
2017-05-26T03:23:41.479Z,12.98
2017-05-26T03:24:52.495Z,13.07
2017-05-26T03:26:03.709Z,13.06
2017-05-26T03:27:14.820Z,13.03
2017-05-26T03:28:26.241Z,13.01
2017-05-26T03:29:37.249Z,12.95
2017-05-26T03:30:48.662Z,12.96
2017-05-26T03:31:59.674Z,12.91
2017-05-26T03:33:10.952Z,12.96
2017-05-26T03:34:21.978Z,12.92
2017-05-26T03:35:33.200Z,12.92
2017-05-26T03:36:44.224Z,12.94
2017-05-26T03:37:55.242Z,12.98
2017-05-26T03:39:06.306Z,12.96
2017-05-26T03:40:17.309Z,12.94
2017-05-26T03:41:28.335Z,12.89
2017-05-26T03:42:39.545Z,12.98
2017-05-26T03:43:50.569Z,12.91
2017-05-26T03:45:01.648Z,12.91
2017-05-26T03:46:12.665Z,12.89
2017-05-26T03:47:23.669Z,12.89
2017-05-26T03:48:34.675Z,12.89
2017-05-26T03:49:45.689Z,12.94
2017-05-26T03:50:56.696Z,12.91
2017-05-26T03:52:07.702Z,12.94
2017-05-26T03:53:18.920Z,12.94
2017-05-26T03:54:29.979Z,12.89
2017-05-26T03:55:41.098Z,13.07
2017-05-26T03:56:52.111Z,13.2
2017-05-26T03:58:03.125Z,13.42
2017-05-26T03:59:14.138Z,13.45
2017-05-26T04:00:25.136Z,13.54
2017-05-26T04:01:36.200Z,13.73
2017-05-26T04:02:47.224Z,13.62
2017-05-26T04:03:58.255Z,13.51
2017-05-26T04:05:09.267Z,13.45
2017-05-26T04:06:20.275Z,13.31
2017-05-26T04:07:31.392Z,13.39
2017-05-26T04:08:42.408Z,13.39
2017-05-26T04:09:53.433Z,13.29
2017-05-26T04:11:04.448Z,13.29
2017-05-26T04:12:15.446Z,13.28
2017-05-26T04:13:26.543Z,13.35
2017-05-26T04:14:37.566Z,13.42
2017-05-26T04:15:48.983Z,13.66
2017-05-26T04:17:00.006Z,13.88
2017-05-26T04:18:11.006Z,14.23
2017-05-26T04:19:22.282Z,14.56
2017-05-26T04:20:33.294Z,14.87
2017-05-26T04:21:44.316Z,15.16
2017-05-26T04:22:55.326Z,15.33
2017-05-26T04:24:06.367Z,15.58
2017-05-26T04:25:17.428Z,15.89
2017-05-26T04:26:28.432Z,16.07
2017-05-26T04:27:39.440Z,16.45
2017-05-26T04:28:50.461Z,16.58
2017-05-26T04:30:01.498Z,16.7
2017-05-26T04:31:12.564Z,16.94
2017-05-26T04:32:23.572Z,17.13
2017-05-26T04:33:34.589Z,17.28
2017-05-26T04:34:45.620Z,17.43
2017-05-26T04:35:56.650Z,17.57
2017-05-26T04:37:07.712Z,17.81
2017-05-26T04:38:18.738Z,17.99
2017-05-26T04:39:29.763Z,18.1
2017-05-26T04:40:40.979Z,18.2
2017-05-26T04:41:51.988Z,18.23
2017-05-26T04:43:03.450Z,18.24
2017-05-26T04:44:14.465Z,18.34
2017-05-26T04:45:25.690Z,18.39
2017-05-26T04:46:36.707Z,18.6
2017-05-26T04:47:47.726Z,18.74
2017-05-26T04:48:58.998Z,18.78
2017-05-26T04:50:10.034Z,19.06
2017-05-26T04:51:21.051Z,19.15
2017-05-26T04:52:32.261Z,19.28
2017-05-26T04:53:43.282Z,19.42
2017-05-26T04:54:54.363Z,19.52
2017-05-26T04:56:05.373Z,19.63
2017-05-26T04:57:16.393Z,19.82
2017-05-26T04:58:27.416Z,19.89
2017-05-26T04:59:38.443Z,19.98
2017-05-26T05:00:49.462Z,19.93
2017-05-26T05:02:00.485Z,20.1
2017-05-26T05:03:11.514Z,20.11
2017-05-26T05:04:22.526Z,20.18
2017-05-26T05:05:33.592Z,20.12
2017-05-26T05:06:44.820Z,20.1
2017-05-26T05:07:55.849Z,20.1
2017-05-26T05:09:06.871Z,20.11
2017-05-26T05:10:17.885Z,20.25
2017-05-26T05:11:28.965Z,20.35
2017-05-26T05:12:39.980Z,20.46
2017-05-26T05:13:51.206Z,20.61
2017-05-26T05:15:02.428Z,20.71
2017-05-26T05:16:13.449Z,20.96
2017-05-26T05:17:24.780Z,21.06
2017-05-26T05:18:35.805Z,21.3
2017-05-26T05:19:46.831Z,21.36
2017-05-26T05:20:57.866Z,21.46
2017-05-26T05:22:09.286Z,21.56
2017-05-26T05:23:20.353Z,21.61
2017-05-26T05:24:31.591Z,21.48
2017-05-26T05:25:42.631Z,21.62
2017-05-26T05:26:53.667Z,21.74
2017-05-26T05:28:04.687Z,21.71
2017-05-26T05:29:16.024Z,21.7
2017-05-26T05:30:27.046Z,21.61
2017-05-26T05:31:38.071Z,21.13
2017-05-26T05:32:49.091Z,20.97
2017-05-26T05:34:00.323Z,20.76
2017-05-26T05:35:11.400Z,20.4
2017-05-26T05:36:22.427Z,20.26
2017-05-26T05:37:33.431Z,20.1
2017-05-26T05:38:44.461Z,19.92
2017-05-26T05:39:55.490Z,19.9
2017-05-26T05:41:06.571Z,19.78
2017-05-26T05:42:17.598Z,19.83
2017-05-26T05:43:28.635Z,19.83
2017-05-26T05:44:39.860Z,19.78
2017-05-26T05:45:51.075Z,20.01
2017-05-26T05:47:02.148Z,19.9
2017-05-26T05:48:13.363Z,19.92
2017-05-26T05:49:24.390Z,19.95
2017-05-26T05:50:35.400Z,20.08
2017-05-26T05:51:46.830Z,20.08
2017-05-26T05:52:57.901Z,20.04
2017-05-26T05:54:09.134Z,20.08
2017-05-26T05:55:20.572Z,19.95
2017-05-26T05:56:31.579Z,20.12
2017-05-26T05:57:42.595Z,20.16
2017-05-26T05:58:53.668Z,20.22
2017-05-26T06:00:04.682Z,20.38
2017-05-26T06:01:15.701Z,20.56
2017-05-26T06:02:26.729Z,20.71
2017-05-26T06:03:37.959Z,20.78
2017-05-26T06:04:49.047Z,21.09
2017-05-26T06:06:00.068Z,21.22
2017-05-26T06:07:11.083Z,21.43
2017-05-26T06:08:22.098Z,21.73
2017-05-26T06:09:33.127Z,21.78
2017-05-26T06:10:44.153Z,21.85
2017-05-26T06:11:55.171Z,22.08
2017-05-26T06:13:06.201Z,22.26
2017-05-26T06:14:17.229Z,22.38
2017-05-26T06:15:28.496Z,22.64
2017-05-26T06:16:39.520Z,22.69
2017-05-26T06:17:50.550Z,22.73
2017-05-26T06:19:01.593Z,22.88
2017-05-26T06:20:12.819Z,22.82
2017-05-26T06:21:24.105Z,22.81
2017-05-26T06:22:38.653Z,22.92
2017-05-26T06:23:51.683Z,23.04
2017-05-26T06:25:02.899Z,23.09
2017-05-26T06:26:13.925Z,23.34
2017-05-26T06:27:24.995Z,23.56
2017-05-26T06:28:36.018Z,23.62
2017-05-26T06:29:47.050Z,23.84
2017-05-26T06:30:58.097Z,23.94
2017-05-26T06:32:09.577Z,24.04
2017-05-26T06:33:20.609Z,24.19
2017-05-26T06:34:31.639Z,24.22
2017-05-26T06:35:42.672Z,24.11
2017-05-26T06:36:53.903Z,24.03
2017-05-26T06:38:04.979Z,24.12
2017-05-26T06:39:17.588Z,24.36
2017-05-26T06:40:29.546Z,24.45
2017-05-26T06:41:40.710Z,24.55
2017-05-26T06:42:51.743Z,24.78
2017-05-26T06:44:03.020Z,25.04
2017-05-26T06:45:14.043Z,25.32
2017-05-26T06:46:25.080Z,25.19
2017-05-26T06:47:36.123Z,25.32
2017-05-26T06:48:47.151Z,25.6
2017-05-26T06:49:58.238Z,25.71
2017-05-26T06:51:09.275Z,25.84
2017-05-26T06:52:20.514Z,25.86
2017-05-26T06:53:31.547Z,25.91
2017-05-26T06:54:42.790Z,25.82
2017-05-26T06:55:53.858Z,26.04
2017-05-26T06:57:04.882Z,26.09
2017-05-26T06:58:15.916Z,26.22
2017-05-26T06:59:26.955Z,26.22
2017-05-26T07:00:39.844Z,26.19
2017-05-26T07:01:54.429Z,26.03
2017-05-26T07:03:07.950Z,26.03
2017-05-26T07:04:19.199Z,26.26
2017-05-26T07:05:30.243Z,26.34
2017-05-26T07:06:41.271Z,26.26
2017-05-26T07:07:52.364Z,26.35
2017-05-26T07:09:03.414Z,26.17
2017-05-26T07:10:14.445Z,26.06
2017-05-26T07:11:25.693Z,26.16
2017-05-26T07:12:36.727Z,26.35
2017-05-26T07:13:47.816Z,26.54
2017-05-26T07:14:59.262Z,26.76
2017-05-26T07:16:10.296Z,26.82
2017-05-26T07:17:21.756Z,26.94
2017-05-26T07:18:32.941Z,27.12
2017-05-26T07:19:44.021Z,27.24
2017-05-26T07:20:55.269Z,27.42
2017-05-26T07:22:06.553Z,27.37
2017-05-26T07:23:19.380Z,27.49
2017-05-26T07:24:30.709Z,27.36
2017-05-26T07:25:41.796Z,27.43
2017-05-26T07:26:52.828Z,27.42
2017-05-26T07:28:03.868Z,27.48
2017-05-26T07:29:14.903Z,27.26
2017-05-26T07:30:27.085Z,27.04
2017-05-26T07:31:39.725Z,26.99
2017-05-26T07:32:50.966Z,27.01
2017-05-26T07:34:02.199Z,26.96
2017-05-26T07:35:13.511Z,27.01
2017-05-26T07:36:24.962Z,26.97
2017-05-26T07:37:36.259Z,27.11
2017-05-26T07:38:48.118Z,27.43
2017-05-26T07:39:59.189Z,27.65
2017-05-26T07:41:10.331Z,27.71
2017-05-26T07:42:21.402Z,27.71
2017-05-26T07:43:32.555Z,27.57
2017-05-26T07:44:43.627Z,27.37
2017-05-26T07:45:54.672Z,27.21
2017-05-26T07:47:06.023Z,27.21
2017-05-26T07:48:48.734Z,27.09
2017-05-26T07:49:59.783Z,27
2017-05-26T07:51:10.820Z,26.86
2017-05-26T07:52:21.938Z,26.93
2017-05-26T07:53:32.993Z,26.91
2017-05-26T07:54:45.590Z,26.87
2017-05-26T07:55:56.640Z,26.76
2017-05-26T07:57:07.678Z,26.81
2017-05-26T07:58:18.786Z,27.12
2017-05-26T07:59:29.930Z,27.43
2017-05-26T08:00:41.187Z,27.87
2017-05-26T08:01:52.247Z,28.14
2017-05-26T08:03:03.400Z,28.36
2017-05-26T08:04:14.442Z,28.64
2017-05-26T08:05:25.556Z,28.83
2017-05-26T08:06:36.857Z,29.05
2017-05-26T08:07:47.961Z,29.24
2017-05-26T08:08:59.003Z,29.39
2017-05-26T08:10:10.235Z,29.38
2017-05-26T08:11:21.397Z,29.24
2017-05-26T08:12:32.426Z,29.21
2017-05-26T08:13:43.509Z,28.8
2017-05-26T08:14:55.941Z,28.48
2017-05-26T08:16:08.856Z,28.31
2017-05-26T08:17:19.964Z,28.2
2017-05-26T08:18:31.006Z,28.14
2017-05-26T08:19:42.376Z,28.2
2017-05-26T08:20:53.752Z,28.46
2017-05-26T08:22:05.056Z,28.28
2017-05-26T08:23:16.628Z,28.49
2017-05-26T08:24:28.108Z,28.67
2017-05-26T08:25:48.440Z,29.06
2017-05-26T08:27:00.107Z,29.21
2017-05-26T08:28:12.683Z,29.5
2017-05-26T08:29:24.837Z,29.73
2017-05-26T08:30:36.486Z,29.75
2017-05-26T08:31:47.601Z,29.81
2017-05-26T08:32:58.686Z,29.97
2017-05-26T08:34:10.453Z,29.87
2017-05-26T08:35:21.487Z,29.88
2017-05-26T08:36:32.724Z,29.79
2017-05-26T08:37:43.962Z,29.75
2017-05-26T08:38:55.055Z,29.89
2017-05-26T08:40:06.095Z,30.14
2017-05-26T08:41:17.131Z,30.29
2017-05-26T08:42:28.465Z,30.48
2017-05-26T08:43:40.447Z,30.62
2017-05-26T08:44:52.121Z,30.86
2017-05-26T08:46:03.753Z,31.03
2017-05-26T08:47:15.451Z,31.26
2017-05-26T08:48:27.138Z,31.22
2017-05-26T08:49:38.946Z,31.26
2017-05-26T08:50:50.594Z,31.07
2017-05-26T08:52:02.106Z,30.78
2017-05-26T08:53:13.652Z,30.49
2017-05-26T08:54:25.334Z,30.31
2017-05-26T08:55:37.233Z,30.21
2017-05-26T08:56:48.960Z,30.11
2017-05-26T08:58:00.692Z,29.95
2017-05-26T08:59:12.302Z,29.97
2017-05-26T09:00:24.095Z,29.88
2017-05-26T09:01:35.970Z,30.13
2017-05-26T09:02:47.529Z,30.24
2017-05-26T09:04:13.412Z,30.18
2017-05-26T09:05:25.149Z,30.11
2017-05-26T09:06:36.865Z,30.04
2017-05-26T09:07:48.504Z,29.87
2017-05-26T09:09:00.127Z,29.97
2017-05-26T09:10:11.547Z,30.19
2017-05-26T09:11:22.987Z,30.42
2017-05-26T09:12:34.743Z,30.69
2017-05-26T09:13:46.668Z,30.89
2017-05-26T09:14:58.482Z,31.06
2017-05-26T09:16:10.072Z,31.06
2017-05-26T09:17:21.854Z,31.07
2017-05-26T09:18:33.285Z,30.94
2017-05-26T09:19:44.948Z,30.75
2017-05-26T09:20:56.749Z,30.85
2017-05-26T09:22:08.438Z,30.96
2017-05-26T09:23:20.145Z,30.94
2017-05-26T09:24:31.708Z,30.93
2017-05-26T09:25:43.179Z,30.85
2017-05-26T09:26:55.007Z,30.85
2017-05-26T09:28:06.749Z,30.82
2017-05-26T09:29:18.022Z,30.79
2017-05-26T09:30:35.816Z,30.86
2017-05-26T09:31:47.758Z,30.91
2017-05-26T09:33:19.910Z,30.94
2017-05-26T09:34:38.543Z,30.89
2017-05-26T09:35:50.385Z,30.89
2017-05-26T09:37:02.058Z,30.99
2017-05-26T09:38:13.550Z,30.93
2017-05-26T09:39:25.124Z,30.91
2017-05-26T09:40:37.086Z,30.96
2017-05-26T09:41:49.155Z,31.19
2017-05-26T09:43:00.691Z,31.19
2017-05-26T09:44:12.294Z,31.04
2017-05-26T09:45:23.856Z,31.03
2017-05-26T09:46:35.244Z,31.19
2017-05-26T09:47:46.955Z,31.28
2017-05-26T09:48:58.164Z,31.56
2017-05-26T09:50:09.634Z,31.68
2017-05-26T09:51:20.992Z,31.67
2017-05-26T09:52:32.037Z,31.72
2017-05-26T09:53:43.510Z,31.44
2017-05-26T09:54:58.465Z,30.94
2017-05-26T09:56:13.236Z,30.56
2017-05-26T09:57:24.302Z,30.45
2017-05-26T09:58:35.337Z,30.45
2017-05-26T09:59:46.442Z,30.4
2017-05-26T10:00:57.866Z,30.56
2017-05-26T10:02:08.884Z,30.52
2017-05-26T10:03:19.921Z,30.49
2017-05-26T10:04:30.991Z,30.56
2017-05-26T10:05:42.024Z,30.56
2017-05-26T10:06:53.065Z,30.59
2017-05-26T10:08:04.302Z,30.54
2017-05-26T10:09:15.559Z,30.64
2017-05-26T10:10:26.801Z,30.7
2017-05-26T10:11:38.028Z,30.67
2017-05-26T10:12:49.090Z,30.7
2017-05-26T10:14:00.127Z,30.84
2017-05-26T10:15:11.405Z,31.21
2017-05-26T10:16:22.444Z,31.26
2017-05-26T10:17:33.487Z,31.19
2017-05-26T10:18:44.514Z,31.22
2017-05-26T10:19:55.556Z,31.08
2017-05-26T10:21:06.647Z,30.78
2017-05-26T10:22:17.684Z,30.34
2017-05-26T10:23:28.722Z,30.22
2017-05-26T10:24:39.762Z,29.95
2017-05-26T10:25:50.802Z,30.31
2017-05-26T10:27:01.882Z,30.35
2017-05-26T10:28:12.927Z,30.51
2017-05-26T10:29:23.958Z,30.59
2017-05-26T10:30:35.202Z,30.56
2017-05-26T10:31:46.227Z,30.75
2017-05-26T10:32:57.526Z,31.06
2017-05-26T10:34:08.559Z,31.01
2017-05-26T10:35:19.581Z,31.06
2017-05-26T10:36:30.816Z,30.97
2017-05-26T10:37:42.052Z,30.88
2017-05-26T10:38:53.140Z,30.82
2017-05-26T10:40:04.165Z,31.04
2017-05-26T10:41:15.210Z,31.06
2017-05-26T10:42:26.242Z,31.3
2017-05-26T10:43:37.475Z,31.31
2017-05-26T10:44:48.628Z,31.4
2017-05-26T10:45:59.660Z,31.44
2017-05-26T10:47:10.694Z,31.58
2017-05-26T10:48:21.734Z,31.65
2017-05-26T10:49:32.763Z,31.8
2017-05-26T10:50:43.792Z,31.98
2017-05-26T10:51:54.827Z,31.95
2017-05-26T10:53:06.060Z,31.97
2017-05-26T10:54:17.286Z,32.01
2017-05-26T10:55:28.376Z,32.08
2017-05-26T10:56:39.411Z,32.12
2017-05-26T10:57:50.441Z,32.34
2017-05-26T10:59:01.695Z,32.5
2017-05-26T11:00:12.736Z,32.46
2017-05-26T11:01:23.807Z,32.3
2017-05-26T11:02:34.844Z,32.15
2017-05-26T11:03:45.884Z,31.91
2017-05-26T11:04:56.923Z,31.72
2017-05-26T11:06:08.152Z,31.6
2017-05-26T11:07:19.238Z,31.56
2017-05-26T11:08:30.279Z,31.33
2017-05-26T11:09:41.317Z,31.21
2017-05-26T11:10:52.557Z,31.22
2017-05-26T11:12:03.597Z,31.23
2017-05-26T11:13:14.690Z,31.3
2017-05-26T11:14:25.738Z,31.23
2017-05-26T11:15:36.779Z,31.28
2017-05-26T11:16:47.805Z,31.31
2017-05-26T11:17:58.837Z,31.5
2017-05-26T11:19:09.923Z,31.62
2017-05-26T11:20:20.956Z,31.7
2017-05-26T11:21:31.983Z,31.6
2017-05-26T11:22:43.017Z,31.7
2017-05-26T11:23:54.268Z,31.77
2017-05-26T11:25:05.555Z,31.8
2017-05-26T11:26:16.591Z,31.87
2017-05-26T11:27:27.630Z,31.94
2017-05-26T11:28:38.649Z,32.01
2017-05-26T11:29:49.900Z,32.06
2017-05-26T11:31:00.924Z,32.06
2017-05-26T11:32:11.958Z,32.1
2017-05-26T11:33:22.992Z,32.17
2017-05-26T11:34:34.035Z,32.23
2017-05-26T11:35:45.369Z,32.15
2017-05-26T11:36:56.404Z,32.38
2017-05-26T11:38:07.449Z,32.12
2017-05-26T11:39:18.487Z,32.05
2017-05-26T11:40:29.717Z,32.09
2017-05-26T11:41:40.793Z,32.35
2017-05-26T11:42:51.904Z,32.56
2017-05-26T11:44:03.146Z,32.54
2017-05-26T11:45:14.385Z,32.49
2017-05-26T11:46:25.619Z,32.28
2017-05-26T11:47:36.702Z,32.12
2017-05-26T11:48:47.728Z,32.19
2017-05-26T11:49:58.759Z,32.27
2017-05-26T11:51:09.800Z,32.2
2017-05-26T11:52:21.030Z,32.03
2017-05-26T11:53:32.108Z,31.93
2017-05-26T11:54:43.339Z,31.93
2017-05-26T11:55:54.364Z,31.71
2017-05-26T11:57:05.399Z,31.65
2017-05-26T11:58:16.634Z,31.72
2017-05-26T11:59:27.920Z,31.77
2017-05-26T12:00:38.954Z,31.65
2017-05-26T12:01:49.986Z,31.7
2017-05-26T12:03:01.024Z,31.7
2017-05-26T12:04:12.053Z,31.81
2017-05-26T12:05:23.143Z,31.87
2017-05-26T12:06:34.180Z,31.72
2017-05-26T12:07:45.221Z,31.71
2017-05-26T12:08:56.264Z,31.72
2017-05-26T12:10:07.713Z,31.7
2017-05-26T12:11:18.804Z,31.68
2017-05-26T12:12:29.835Z,31.62
2017-05-26T12:13:41.066Z,31.55
2017-05-26T12:14:52.314Z,31.41
2017-05-26T12:16:03.547Z,31.53
2017-05-26T12:17:14.619Z,31.47
2017-05-26T12:18:25.857Z,31.36
2017-05-26T12:19:36.887Z,31.33
2017-05-26T12:20:47.924Z,31.43
2017-05-26T12:21:58.959Z,31.43
2017-05-26T12:23:10.059Z,31.59
2017-05-26T12:24:21.081Z,31.49
2017-05-26T12:25:32.111Z,31.59
2017-05-26T12:27:04.225Z,31.47
2017-05-26T12:28:25.708Z,31.31
2017-05-26T12:29:36.940Z,31.3
2017-05-26T12:32:27.680Z,31.36
2017-05-26T12:33:43.550Z,31.31
2017-05-26T12:35:03.363Z,31.28
2017-05-26T12:36:14.405Z,31.03
2017-05-26T12:37:25.628Z,30.93
2017-05-26T12:38:36.911Z,30.66
2017-05-26T12:40:09.241Z,30.64
2017-05-26T12:41:22.384Z,30.78
2017-05-26T12:42:33.614Z,30.75
2017-05-26T12:43:44.694Z,30.73
2017-05-26T12:44:55.727Z,30.64
2017-05-26T12:46:06.776Z,30.63
2017-05-26T12:47:35.575Z,30.63
2017-05-26T12:49:01.867Z,30.82
2017-05-26T12:50:12.890Z,30.93
2017-05-26T12:51:24.118Z,31.06
2017-05-26T12:52:35.150Z,31.21
2017-05-26T12:53:46.190Z,31.19
2017-05-26T12:54:57.469Z,31.04
2017-05-26T12:56:08.697Z,31.12
2017-05-26T12:57:19.721Z,30.96
2017-05-26T12:58:30.946Z,30.89
2017-05-26T12:59:42.182Z,31.03
2017-05-26T13:00:53.211Z,30.93
2017-05-26T13:02:04.240Z,30.99
2017-05-26T13:03:15.268Z,31.01
2017-05-26T13:04:26.293Z,30.99
2017-05-26T13:05:37.410Z,31.21
2017-05-26T13:06:48.449Z,31.28
2017-05-26T13:07:59.548Z,31.31
2017-05-26T13:09:12.907Z,31.01
2017-05-26T13:10:30.108Z,30.94
2017-05-26T13:11:41.181Z,30.94
2017-05-26T13:12:52.405Z,30.79
2017-05-26T13:14:03.842Z,30.39
2017-05-26T13:15:15.178Z,30.42
2017-05-26T13:16:26.451Z,30.24
2017-05-26T13:17:37.798Z,30.34
2017-05-26T13:18:49.623Z,30.24
2017-05-26T13:20:00.639Z,30.22
2017-05-26T13:21:11.666Z,30.22
2017-05-26T13:22:22.740Z,30.34
2017-05-26T13:23:33.775Z,30.49
2017-05-26T13:24:45.071Z,30.56
2017-05-26T13:25:56.103Z,30.63
2017-05-26T13:27:07.126Z,30.57
2017-05-26T13:28:18.408Z,30.59
2017-05-26T13:29:29.435Z,30.54
2017-05-26T13:30:40.455Z,30.42
2017-05-26T13:31:51.486Z,30.35
2017-05-26T13:33:02.514Z,30.26
2017-05-26T13:34:13.582Z,30.42
2017-05-26T13:35:24.613Z,30.45
2017-05-26T13:36:35.649Z,30.32
2017-05-26T13:37:46.660Z,30.25
2017-05-26T13:38:57.694Z,30.24
2017-05-26T13:40:08.720Z,30.19
2017-05-26T13:41:19.738Z,30.21
2017-05-26T13:42:30.759Z,30.14
2017-05-26T13:43:58.151Z,30.03
2017-05-26T13:45:09.428Z,29.95
2017-05-26T13:46:20.477Z,29.84
2017-05-26T13:47:31.500Z,29.94
2017-05-26T13:48:42.723Z,29.98
2017-05-26T13:49:53.753Z,29.94
2017-05-26T13:51:04.825Z,29.77
2017-05-26T13:52:15.858Z,29.76
2017-05-26T13:53:26.877Z,29.77
2017-05-26T13:54:37.902Z,29.67
2017-05-26T13:55:48.937Z,29.75
2017-05-26T13:57:00.016Z,29.63
2017-05-26T13:58:11.437Z,29.61
2017-05-26T13:59:22.463Z,29.5
2017-05-26T14:00:33.491Z,29.47
2017-05-26T14:01:44.518Z,29.76
2017-05-26T14:02:55.795Z,29.81
2017-05-26T14:04:06.817Z,29.98
2017-05-26T14:05:17.848Z,30.06
2017-05-26T14:06:28.875Z,30.18
2017-05-26T14:07:39.900Z,30.1
2017-05-26T14:08:51.184Z,30.22
2017-05-26T14:10:02.206Z,30.07
2017-05-26T14:11:13.635Z,29.94
2017-05-26T14:12:24.658Z,30
2017-05-26T14:13:35.680Z,29.89
2017-05-26T14:14:46.761Z,29.79
2017-05-26T14:15:57.783Z,29.67
2017-05-26T14:17:08.810Z,29.77
2017-05-26T14:18:19.838Z,29.81
2017-05-26T14:19:30.868Z,29.88
2017-05-26T14:20:41.940Z,29.87
2017-05-26T14:21:52.978Z,29.81
2017-05-26T14:23:04.017Z,30.02
2017-05-26T14:24:15.237Z,29.92
2017-05-26T14:25:26.256Z,29.95
2017-05-26T14:26:37.325Z,30
2017-05-26T14:27:48.349Z,30.04
2017-05-26T14:28:59.385Z,29.89
2017-05-26T14:30:10.407Z,29.73
2017-05-26T14:31:21.429Z,29.65
2017-05-26T14:32:32.502Z,29.81
2017-05-26T14:33:43.724Z,29.7
2017-05-26T14:34:54.754Z,29.77
2017-05-26T14:36:05.793Z,29.72
2017-05-26T14:37:16.825Z,29.77
2017-05-26T14:38:27.891Z,30
2017-05-26T14:39:38.908Z,29.97
2017-05-26T14:40:49.930Z,29.95
2017-05-26T14:42:01.167Z,29.94
2017-05-26T14:43:12.199Z,29.92
2017-05-26T14:44:23.225Z,29.95
2017-05-26T14:45:34.254Z,30
2017-05-26T14:46:45.475Z,29.98
2017-05-26T14:47:56.515Z,30.02
2017-05-26T14:49:07.788Z,29.94
2017-05-26T14:50:19.015Z,29.88
2017-05-26T14:51:30.056Z,29.72
2017-05-26T14:52:41.084Z,29.76
2017-05-26T14:53:52.106Z,29.42
2017-05-26T14:55:03.132Z,29.32
2017-05-26T14:56:14.155Z,29.23
2017-05-26T14:57:25.625Z,29.28
2017-05-26T14:58:36.921Z,29.21
2017-05-26T14:59:48.176Z,29.35
2017-05-26T15:00:59.279Z,29.43
2017-05-26T15:02:10.493Z,29.51
2017-05-26T15:03:21.719Z,29.58
2017-05-26T15:04:32.742Z,29.65
2017-05-26T15:05:43.816Z,29.52
2017-05-26T15:06:55.043Z,29.48
2017-05-26T15:08:06.276Z,29.36
2017-05-26T15:09:17.302Z,29.3
2017-05-26T15:10:28.331Z,29.35
2017-05-26T15:11:39.410Z,29.29
2017-05-26T15:12:50.844Z,29.24
2017-05-26T15:14:02.075Z,29.2
2017-05-26T15:15:13.295Z,29.14
2017-05-26T15:16:24.303Z,29.14
2017-05-26T15:17:35.383Z,29.15
2017-05-26T15:18:46.409Z,29.08
2017-05-26T15:19:57.439Z,29.08
2017-05-26T15:21:08.469Z,29.11
2017-05-26T15:22:19.491Z,28.92
2017-05-26T15:23:30.572Z,28.94
2017-05-26T15:24:41.599Z,28.83
2017-05-26T15:25:52.617Z,28.83